Bob Hope Airport
KBUR : now visible

Airfield :











YOU CAN JOIN US ON...

 
LOGIN :

Register | Disclaimer

   EN    FR    IT 

 









Legend :    VFR   Marginal VFR   IFR   Intensive IFR   Very Intensive IFR
Visi :
Ceiling :
>= 8 km
>= 3000ft
5 to 8 km
1000 to 3000 ft
1500m to 5 km
500 to 1000 ft
800 to 1500m
200 to 500 ft
< 800m
< 200 ft
Symbols :   Thunderstorms  Fog  Heavy snow  Heavy precipitations  Wind > 20 kt






- Airport Elevation : 778 ft
- IATA code : BUR


KBUR - Bob Hope

CURRENT METAR :
  • 180653Z 04003KT 8SM CLR 13/09 A2995 RMK AO2 SLP133 T01330094

EXPIRED METARs :
  • 180553Z 09005KT 10SM CLR 14/09 A2994 RMK AO2 SLP132 T01390089 10211 20139 53017
  • 180453Z 11004KT 9SM CLR 14/10 A2992 RMK AO2 SLP125 T01390100
  • 180353Z 13004KT 10SM CLR 15/10 A2991 RMK AO2 SLP121 T01500100

TAF KBUR
Valid from the 18 at 06:00 until the 19 at 06:00 UTC


180529Z 1806/1906 VRB03KT P6SM BKN250
FM182200 17008KT P6SM SCT250
FM190400 VRB03KT P6SM SCT250



MET'MAP, your aeronautical weather chart ! - Copyright ORBIFLY December 2007 - Disclaimer

ORBIFLY MET'MAP TEAM :

Programming & Development : Alexandra Zaïnal
Concept & original design : Baudouin d'Aumeries
Assistance for programming : Marc-Olivier Méhu
Technical & hardware support : Manuel Goepfert

Contact : metmap@orbifly.com




SOURCES & CREDITS :

   NOAA       Earth
Advisory